createdAt,value
2019-04-25T00:00:02.042Z,96.40
2019-04-25T00:02:32.516Z,97.00
2019-04-25T00:05:01.331Z,97.40
2019-04-25T00:07:32.805Z,97.50
2019-04-25T00:10:01.755Z,97.70
2019-04-25T00:12:30.231Z,97.40
2019-04-25T00:14:58.665Z,97.40
2019-04-25T00:17:27.180Z,97.70
2019-04-25T00:19:55.611Z,97.50
2019-04-25T00:22:32.248Z,97.70
2019-04-25T00:25:14.755Z,97.60
2019-04-25T00:27:32.849Z,97.60
2019-04-25T00:30:01.717Z,97.70
2019-04-25T00:32:31.557Z,97.80
2019-04-25T00:35:01.486Z,98.00
2019-04-25T00:37:32.201Z,98.00
2019-04-25T00:40:01.491Z,98.10
2019-04-25T00:42:31.893Z,97.90
2019-04-25T00:45:02.387Z,97.70
2019-04-25T00:47:31.547Z,97.40
2019-04-25T00:50:00.105Z,97.30
2019-04-25T00:52:28.545Z,97.60
2019-04-25T00:54:56.976Z,97.20
2019-04-25T00:57:26.080Z,97.10
2019-04-25T00:59:59.288Z,97.10
2019-04-25T01:02:47.342Z,96.90
2019-04-25T01:05:15.866Z,97.10
2019-04-25T01:07:44.588Z,97.20
2019-04-25T01:10:13.738Z,97.20
2019-04-25T01:12:42.464Z,97.10
2019-04-25T01:15:32.030Z,97.10
2019-04-25T01:18:01.198Z,97.20
2019-04-25T01:20:29.835Z,97.30
2019-04-25T01:23:00.809Z,97.40
2019-04-25T01:25:38.553Z,97.40
2019-04-25T01:27:58.604Z,97.40
2019-04-25T01:30:28.001Z,97.50
2019-04-25T01:32:56.721Z,97.50
2019-04-25T01:35:26.973Z,97.40
2019-04-25T01:37:57.407Z,97.50
2019-04-25T01:40:27.836Z,97.40
2019-04-25T01:43:14.957Z,97.30
2019-04-25T01:45:43.940Z,97.60
2019-04-25T01:48:13.614Z,97.50
2019-04-25T01:50:43.759Z,97.30
2019-04-25T01:53:12.362Z,97.40
2019-04-25T01:55:51.783Z,97.30
2019-04-25T01:58:13.561Z,97.40
2019-04-25T02:00:46.628Z,97.10
2019-04-25T02:03:15.055Z,97.20
2019-04-25T02:05:43.886Z,97.30
2019-04-25T02:08:14.190Z,97.40
2019-04-25T02:10:44.552Z,97.60
2019-04-25T02:13:20.324Z,97.80
2019-04-25T02:15:49.021Z,97.90
2019-04-25T02:18:17.786Z,98.10
2019-04-25T02:20:46.588Z,98.10
2019-04-25T02:23:15.016Z,98.60
2019-04-25T02:25:44.274Z,99.20
2019-04-25T02:28:13.934Z,99.90
2019-04-25T02:30:45.320Z,99.90
2019-04-25T02:33:14.194Z,99.90
2019-04-25T02:35:46.171Z,99.90
2019-04-25T02:38:14.729Z,99.90
2019-04-25T02:40:45.434Z,99.90
2019-04-25T02:43:14.239Z,99.90
2019-04-25T02:45:55.483Z,99.90
2019-04-25T02:48:34.494Z,99.90
2019-04-25T02:51:10.214Z,99.90
2019-04-25T02:53:44.639Z,99.90
2019-04-25T02:56:29.461Z,99.90
2019-04-25T02:58:44.317Z,99.90
2019-04-25T03:01:21.646Z,99.90
2019-04-25T03:03:46.402Z,99.90
2019-04-25T03:06:15.326Z,99.90
2019-04-25T03:08:44.868Z,99.90
2019-04-25T03:11:15.024Z,99.90
2019-04-25T03:13:44.172Z,99.90
2019-04-25T03:16:14.003Z,99.90
2019-04-25T03:18:57.935Z,99.90
2019-04-25T03:21:29.537Z,99.90
2019-04-25T03:23:58.622Z,99.90
2019-04-25T03:26:37.874Z,99.90
2019-04-25T03:28:58.836Z,99.90
2019-04-25T03:31:28.103Z,99.90
2019-04-25T03:33:56.616Z,99.90
2019-04-25T03:36:25.365Z,99.90
2019-04-25T03:38:55.997Z,99.90
2019-04-25T03:41:24.786Z,99.90
2019-04-25T03:43:54.183Z,99.90
2019-04-25T03:46:23.372Z,99.90
2019-04-25T03:48:51.951Z,99.90
2019-04-25T03:51:20.668Z,99.90
2019-04-25T03:53:49.094Z,99.90
2019-04-25T03:56:17.543Z,99.90
2019-04-25T03:58:46.232Z,99.90
2019-04-25T04:01:15.841Z,99.90
2019-04-25T04:03:44.633Z,99.90
2019-04-25T04:06:15.231Z,99.90
2019-04-25T04:08:44.283Z,99.90
2019-04-25T04:11:14.561Z,99.90
2019-04-25T04:13:43.995Z,99.90
2019-04-25T04:16:15.423Z,99.90
2019-04-25T04:18:45.994Z,99.90
2019-04-25T04:21:20.300Z,99.90
2019-04-25T04:23:50.388Z,99.90
2019-04-25T04:26:19.050Z,99.90
2019-04-25T04:28:47.476Z,99.90
2019-04-25T04:31:16.589Z,99.90
2019-04-25T04:33:45.395Z,99.90
2019-04-25T04:36:15.653Z,99.90
2019-04-25T04:38:44.351Z,99.90
2019-04-25T04:41:14.295Z,99.90
2019-04-25T04:43:44.132Z,99.90
2019-04-25T04:46:14.179Z,99.70
2019-04-25T04:48:43.835Z,97.80
2019-04-25T04:51:14.459Z,94.90
2019-04-25T04:53:43.836Z,92.70
2019-04-25T04:56:14.197Z,90.30
2019-04-25T04:58:43.209Z,86.60
2019-04-25T05:01:13.049Z,82.80
2019-04-25T05:03:49.449Z,78.70
2019-04-25T05:06:24.026Z,74.00
2019-04-25T05:08:54.927Z,71.50
2019-04-25T05:11:25.326Z,69.90
2019-04-25T05:13:54.783Z,69.20
2019-04-25T05:16:23.898Z,70.60
2019-04-25T05:18:55.095Z,72.50
2019-04-25T05:21:23.145Z,72.00
2019-04-25T05:23:51.849Z,70.00
2019-04-25T05:26:21.052Z,66.60
2019-04-25T05:28:49.499Z,64.80
2019-04-25T05:31:19.853Z,63.90
2019-04-25T05:33:48.288Z,62.20
2019-04-25T05:36:17.614Z,61.30
2019-04-25T05:38:47.252Z,61.70
2019-04-25T05:41:18.184Z,62.10
2019-04-25T05:43:46.747Z,58.50
2019-04-25T05:46:15.489Z,56.50
2019-04-25T05:48:44.199Z,54.30
2019-04-25T05:51:13.624Z,52.90
2019-04-25T05:53:43.352Z,50.70
2019-04-25T05:56:11.877Z,50.60
2019-04-25T05:58:40.563Z,49.60
2019-04-25T06:01:08.994Z,50.20
2019-04-25T06:03:37.729Z,51.60
2019-04-25T06:06:06.328Z,49.40
2019-04-25T06:08:37.337Z,48.60
2019-04-25T06:11:07.708Z,48.00
2019-04-25T06:13:37.792Z,50.30
2019-04-25T06:16:08.109Z,50.30
2019-04-25T06:18:40.660Z,52.50
2019-04-25T06:21:10.728Z,54.20
2019-04-25T06:23:41.733Z,53.20
2019-04-25T06:26:22.825Z,54.00
2019-04-25T06:28:52.439Z,52.40
2019-04-25T06:31:14.466Z,52.70
2019-04-25T06:33:43.375Z,55.60
2019-04-25T06:36:12.008Z,55.80
2019-04-25T06:38:40.490Z,54.40
2019-04-25T06:41:08.974Z,52.60
2019-04-25T06:43:39.037Z,52.10
2019-04-25T06:46:17.909Z,53.20
2019-04-25T06:48:48.008Z,50.80
2019-04-25T06:51:16.428Z,47.70
2019-04-25T06:53:45.205Z,48.90
2019-04-25T06:56:13.997Z,50.10
2019-04-25T06:58:43.837Z,51.40
2019-04-25T07:01:13.666Z,51.20
2019-04-25T07:03:44.059Z,51.50
2019-04-25T07:06:12.971Z,51.10
2019-04-25T07:08:44.799Z,50.10
2019-04-25T07:11:14.409Z,51.00
2019-04-25T07:13:43.892Z,51.50
2019-04-25T07:16:13.403Z,51.80
2019-04-25T07:18:43.489Z,52.20
2019-04-25T07:21:12.138Z,51.30
2019-04-25T07:23:40.843Z,51.60
2019-04-25T07:26:13.514Z,53.60
2019-04-25T07:28:47.325Z,55.50
2019-04-25T07:31:25.109Z,54.90
2019-04-25T07:33:57.673Z,56.80
2019-04-25T07:36:26.105Z,57.00
2019-04-25T07:39:05.732Z,56.90
2019-04-25T07:41:25.961Z,55.80
2019-04-25T07:43:54.509Z,55.00
2019-04-25T07:46:23.503Z,55.00
2019-04-25T07:48:53.519Z,54.70
2019-04-25T07:51:23.727Z,53.80
2019-04-25T07:53:53.491Z,53.40
2019-04-25T07:56:22.224Z,53.30
2019-04-25T07:58:52.742Z,53.00
2019-04-25T08:01:21.077Z,51.70
2019-04-25T08:03:49.524Z,52.80
2019-04-25T08:06:17.944Z,50.90
2019-04-25T08:08:46.732Z,50.70
2019-04-25T08:11:15.200Z,48.20
2019-04-25T08:14:03.420Z,42.70
2019-04-25T08:16:34.787Z,42.10
2019-04-25T08:19:04.581Z,42.30
2019-04-25T08:21:34.492Z,41.50
2019-04-25T08:24:04.722Z,40.00
2019-04-25T08:26:35.013Z,39.60
2019-04-25T08:29:25.552Z,40.70
2019-04-25T08:31:55.036Z,41.40
2019-04-25T08:34:24.338Z,41.60
2019-04-25T08:37:18.965Z,42.10
2019-04-25T08:39:44.907Z,41.10
2019-04-25T08:42:13.059Z,43.00
2019-04-25T08:44:43.768Z,45.30
2019-04-25T08:47:14.452Z,44.70
2019-04-25T08:49:46.007Z,43.50
2019-04-25T08:52:14.910Z,42.80
2019-04-25T08:54:47.364Z,42.60
2019-04-25T08:57:19.980Z,41.40
2019-04-25T08:59:56.524Z,42.80
2019-04-25T09:02:37.480Z,41.70
2019-04-25T09:05:24.222Z,41.60
2019-04-25T09:07:54.342Z,40.50
2019-04-25T09:10:23.724Z,38.50
2019-04-25T09:12:53.766Z,39.30
2019-04-25T09:15:23.994Z,38.60
2019-04-25T09:17:54.694Z,39.10
2019-04-25T09:20:23.623Z,38.60
2019-04-25T09:22:54.095Z,39.30
2019-04-25T09:25:23.807Z,39.50
2019-04-25T09:27:54.327Z,40.10
2019-04-25T09:30:24.072Z,40.40
2019-04-25T09:32:53.479Z,40.60
2019-04-25T09:35:23.604Z,37.80
2019-04-25T09:37:53.594Z,38.40
2019-04-25T09:40:23.838Z,39.00
2019-04-25T09:42:53.720Z,38.70
2019-04-25T09:45:26.283Z,39.00
2019-04-25T09:48:25.360Z,38.10
2019-04-25T09:53:51.429Z,35.70
2019-04-25T09:56:27.949Z,35.70
2019-04-25T09:59:04.513Z,35.90
2019-04-25T10:01:33.929Z,36.90
2019-04-25T10:04:03.101Z,37.00
2019-04-25T10:06:33.299Z,36.90
2019-04-25T10:09:02.072Z,36.30
2019-04-25T10:11:30.500Z,35.60
2019-04-25T10:14:02.031Z,35.80
2019-04-25T10:16:30.457Z,36.60
2019-04-25T10:18:59.157Z,36.10
2019-04-25T10:21:28.067Z,36.80
2019-04-25T10:23:56.529Z,36.80
2019-04-25T10:26:25.943Z,37.10
2019-04-25T10:28:54.638Z,38.10
2019-04-25T10:31:23.803Z,36.50
2019-04-25T10:33:53.529Z,37.90
2019-04-25T10:36:22.999Z,37.10
2019-04-25T10:39:04.030Z,37.40
2019-04-25T10:41:24.459Z,36.50
2019-04-25T10:43:54.663Z,36.30
2019-04-25T10:46:24.479Z,36.40
2019-04-25T10:48:55.923Z,36.60
2019-04-25T10:51:24.009Z,36.40
2019-04-25T10:53:53.869Z,36.80
2019-04-25T10:56:24.342Z,38.00
2019-04-25T10:58:54.904Z,38.20
2019-04-25T11:01:24.393Z,37.10
2019-04-25T11:03:55.721Z,36.40
2019-04-25T11:06:26.398Z,36.40
2019-04-25T11:08:56.490Z,36.10
2019-04-25T11:11:25.385Z,35.60
2019-04-25T11:13:56.690Z,36.30
2019-04-25T11:16:25.452Z,36.00
2019-04-25T11:18:54.858Z,35.20
2019-04-25T11:21:24.254Z,36.10
2019-04-25T11:23:55.316Z,34.80
2019-04-25T11:26:23.568Z,33.30
2019-04-25T11:28:52.129Z,33.00
2019-04-25T11:31:23.518Z,33.00
2019-04-25T11:33:54.274Z,33.00
2019-04-25T11:36:24.762Z,32.10
2019-04-25T11:39:11.019Z,31.10
2019-04-25T11:41:39.877Z,31.10
2019-04-25T11:44:08.340Z,31.30
2019-04-25T11:46:39.259Z,31.70
2019-04-25T11:49:08.692Z,31.10
2019-04-25T11:51:37.184Z,29.90
2019-04-25T11:54:06.008Z,29.40
2019-04-25T11:56:34.776Z,30.50
2019-04-25T11:59:04.524Z,30.60
2019-04-25T12:01:33.662Z,31.30
2019-04-25T12:04:03.996Z,31.60
2019-04-25T12:06:33.537Z,31.60
2019-04-25T12:09:04.022Z,31.40
2019-04-25T12:11:34.077Z,31.00
2019-04-25T12:14:04.304Z,30.70
2019-04-25T12:16:33.393Z,31.50
2019-04-25T12:19:01.833Z,31.90
2019-04-25T12:21:30.565Z,30.80
2019-04-25T12:24:01.699Z,30.30
2019-04-25T12:26:29.155Z,30.00
2019-04-25T12:28:57.856Z,29.90
2019-04-25T12:31:26.287Z,29.80
2019-04-25T12:33:56.386Z,30.10
2019-04-25T12:36:25.478Z,30.00
2019-04-25T12:38:54.538Z,30.10
2019-04-25T12:41:24.021Z,29.40
2019-04-25T12:43:59.870Z,28.50
2019-04-25T12:46:30.001Z,27.90
2019-04-25T12:48:58.740Z,28.00
2019-04-25T12:51:27.168Z,27.80
2019-04-25T12:53:56.084Z,29.00
2019-04-25T12:56:24.841Z,28.20
2019-04-25T12:58:53.871Z,28.20
2019-04-25T13:01:24.770Z,27.50
2019-04-25T13:03:55.375Z,27.60
2019-04-25T13:06:24.280Z,27.00
2019-04-25T13:08:54.247Z,27.30
2019-04-25T13:11:23.924Z,26.90
2019-04-25T13:13:52.907Z,27.10
2019-04-25T13:16:21.417Z,26.50
2019-04-25T13:18:51.117Z,26.20
2019-04-25T13:21:19.800Z,25.90
2019-04-25T13:23:48.312Z,25.80
2019-04-25T13:26:18.403Z,26.20
2019-04-25T13:28:54.366Z,26.00
2019-04-25T13:31:28.292Z,26.60
2019-04-25T13:34:01.666Z,26.30
2019-04-25T13:36:31.197Z,26.10
2019-04-25T13:38:59.968Z,26.10
2019-04-25T13:41:28.469Z,25.50
2019-04-25T13:43:57.728Z,25.70
2019-04-25T13:46:27.582Z,26.20
2019-04-25T13:48:56.352Z,26.10
2019-04-25T13:51:26.099Z,25.80
2019-04-25T13:53:55.660Z,26.10
2019-04-25T13:56:25.851Z,26.90
2019-04-25T13:58:55.361Z,27.30
2019-04-25T14:01:25.860Z,27.00
2019-04-25T14:03:54.468Z,26.60
2019-04-25T14:06:23.986Z,26.50
2019-04-25T14:08:53.365Z,27.10
2019-04-25T14:11:23.959Z,27.80
2019-04-25T14:13:52.669Z,28.70
2019-04-25T14:16:39.239Z,29.30
2019-04-25T14:19:22.545Z,29.90
2019-04-25T14:21:54.797Z,30.70
2019-04-25T14:24:28.117Z,32.00
2019-04-25T14:26:53.780Z,30.30
2019-04-25T14:29:22.404Z,31.10
2019-04-25T14:31:51.388Z,30.90
2019-04-25T14:34:21.021Z,30.70
2019-04-25T14:36:50.700Z,30.10
2019-04-25T14:39:19.844Z,29.80
2019-04-25T14:41:48.276Z,28.70
2019-04-25T14:44:16.795Z,29.00
2019-04-25T14:46:45.561Z,28.40
2019-04-25T14:49:14.388Z,28.80
2019-04-25T14:51:43.257Z,29.70
2019-04-25T14:54:13.345Z,30.60
2019-04-25T14:56:43.703Z,30.90
2019-04-25T14:59:14.016Z,30.00
2019-04-25T15:01:44.877Z,31.00
2019-04-25T15:04:12.802Z,30.80
2019-04-25T15:06:41.243Z,31.10
2019-04-25T15:09:10.138Z,31.00
2019-04-25T15:11:38.581Z,30.10
2019-04-25T15:14:07.008Z,29.80
2019-04-25T15:16:35.434Z,30.50
2019-04-25T15:19:04.571Z,30.30
2019-04-25T15:21:33.947Z,30.00
2019-04-25T15:24:02.528Z,30.20
2019-04-25T15:26:31.180Z,30.30
2019-04-25T15:29:00.049Z,30.60
2019-04-25T15:31:30.154Z,31.10
2019-04-25T15:33:59.071Z,31.50
2019-04-25T15:36:33.378Z,31.70
2019-04-25T15:39:04.421Z,32.10
2019-04-25T15:41:43.656Z,31.80
2019-04-25T15:44:23.087Z,32.70
2019-04-25T15:46:53.148Z,33.80
2019-04-25T15:49:21.747Z,32.90
2019-04-25T15:51:50.492Z,32.90
2019-04-25T15:54:18.921Z,32.80
2019-04-25T15:56:47.453Z,31.80
2019-04-25T15:59:15.880Z,31.90
2019-04-25T16:01:44.884Z,32.70
2019-04-25T16:04:13.635Z,33.40
2019-04-25T16:06:42.136Z,33.60
2019-04-25T16:09:10.658Z,34.10
2019-04-25T16:11:39.154Z,34.00
2019-04-25T16:14:07.581Z,34.30
2019-04-25T16:16:36.025Z,34.20
2019-04-25T16:19:05.292Z,33.80
2019-04-25T16:21:33.736Z,34.20
2019-04-25T16:24:02.371Z,34.00
2019-04-25T16:26:31.485Z,33.80
2019-04-25T16:28:59.949Z,34.60
2019-04-25T16:31:29.202Z,34.90
2019-04-25T16:33:58.121Z,34.50
2019-04-25T16:36:26.564Z,35.40
2019-04-25T16:38:54.992Z,35.40
2019-04-25T16:41:23.595Z,35.10
2019-04-25T16:43:54.004Z,35.50
2019-04-25T16:46:23.320Z,35.80
2019-04-25T16:48:51.765Z,35.70
2019-04-25T16:51:20.595Z,35.70
2019-04-25T16:53:49.040Z,35.90
2019-04-25T16:56:18.074Z,36.00
2019-04-25T16:58:46.546Z,36.00
2019-04-25T17:01:16.070Z,35.90
2019-04-25T17:03:45.097Z,36.40
2019-04-25T17:06:13.718Z,36.70
2019-04-25T17:08:42.141Z,36.60
2019-04-25T17:11:10.912Z,37.10
2019-04-25T17:13:42.505Z,37.30
2019-04-25T17:16:29.557Z,37.10
2019-04-25T17:19:03.287Z,37.30
2019-04-25T17:21:32.452Z,37.80
2019-04-25T17:24:01.088Z,38.10
2019-04-25T17:26:30.404Z,37.70
2019-04-25T17:29:01.484Z,37.90
2019-04-25T17:31:43.889Z,38.00
2019-04-25T17:34:14.101Z,38.10
2019-04-25T17:36:44.489Z,37.90
2019-04-25T17:39:15.213Z,38.10
2019-04-25T17:41:43.653Z,38.10
2019-04-25T17:44:12.533Z,38.40
2019-04-25T17:46:41.905Z,38.60
2019-04-25T17:49:12.891Z,38.50
2019-04-25T17:51:42.040Z,38.60
2019-04-25T17:54:10.532Z,39.20
2019-04-25T17:56:38.984Z,39.40
2019-04-25T17:59:07.920Z,39.10
2019-04-25T18:01:37.951Z,39.50
2019-04-25T18:04:06.857Z,39.50
2019-04-25T18:06:35.697Z,39.70
2019-04-25T18:09:05.852Z,40.00
2019-04-25T18:11:36.014Z,40.40
2019-04-25T18:14:06.310Z,40.80
2019-04-25T18:16:40.337Z,41.00
2019-04-25T18:21:57.828Z,41.50
2019-04-25T18:24:43.878Z,41.90
2019-04-25T18:27:14.275Z,42.30
2019-04-25T18:29:43.674Z,42.70
2019-04-25T18:32:12.384Z,42.70
2019-04-25T18:35:00.705Z,43.10
2019-04-25T18:37:47.406Z,43.40
2019-04-25T18:40:24.381Z,43.80
2019-04-25T18:42:54.826Z,43.90
2019-04-25T18:45:24.901Z,44.00
2019-04-25T18:47:53.324Z,44.30
2019-04-25T18:50:23.396Z,44.60
2019-04-25T18:53:10.056Z,44.70
2019-04-25T18:55:46.580Z,44.80
2019-04-25T18:58:16.941Z,44.80
2019-04-25T19:00:55.736Z,45.00
2019-04-25T19:03:34.810Z,45.10
2019-04-25T19:06:07.772Z,45.20
2019-04-25T19:08:36.568Z,45.30
2019-04-25T19:11:06.069Z,45.30
2019-04-25T19:13:34.572Z,45.50
2019-04-25T19:16:03.083Z,45.70
2019-04-25T19:18:31.516Z,45.70
2019-04-25T19:20:59.949Z,45.60
2019-04-25T19:23:28.387Z,45.90
2019-04-25T19:25:56.817Z,46.10
2019-04-25T19:28:26.248Z,46.00
2019-04-25T19:30:54.994Z,46.10
2019-04-25T19:33:35.062Z,46.20
2019-04-25T19:35:54.131Z,46.40
2019-04-25T19:38:24.480Z,46.60
2019-04-25T19:41:06.574Z,46.70
2019-04-25T19:43:40.024Z,46.90
2019-04-25T19:46:09.737Z,47.20
2019-04-25T19:48:38.425Z,47.30
2019-04-25T19:51:07.222Z,47.30
2019-04-25T19:53:36.012Z,47.30
2019-04-25T19:56:04.588Z,47.20
2019-04-25T19:58:33.016Z,47.50
2019-04-25T20:01:01.468Z,47.70
2019-04-25T20:03:49.455Z,47.40
2019-04-25T20:09:03.836Z,47.70
2019-04-25T20:11:34.188Z,47.40
2019-04-25T20:14:03.521Z,47.40
2019-04-25T20:16:33.844Z,47.50
2019-04-25T20:19:02.268Z,47.60
2019-04-25T20:21:30.705Z,47.70
2019-04-25T20:23:59.132Z,47.60
2019-04-25T20:26:27.784Z,47.60
2019-04-25T20:28:56.203Z,47.30
2019-04-25T20:31:24.643Z,47.30
2019-04-25T20:34:03.438Z,47.30
2019-04-25T20:36:24.813Z,47.80
2019-04-25T20:38:53.572Z,47.80
2019-04-25T20:41:23.927Z,47.90
2019-04-25T20:43:52.840Z,48.10
2019-04-25T20:46:21.805Z,48.30
2019-04-25T20:48:50.449Z,48.30
2019-04-25T20:51:18.981Z,48.40
2019-04-25T20:53:47.943Z,48.70
2019-04-25T20:56:17.303Z,48.90
2019-04-25T20:58:47.719Z,49.10
2019-04-25T21:01:16.309Z,49.00
2019-04-25T21:03:44.927Z,49.20
2019-04-25T21:06:14.995Z,49.10
2019-04-25T21:08:43.788Z,49.20
2019-04-25T21:11:12.244Z,49.60
2019-04-25T21:13:42.460Z,49.60
2019-04-25T21:16:12.608Z,49.60
2019-04-25T21:18:55.227Z,50.10
2019-04-25T21:21:23.712Z,50.20
2019-04-25T21:23:53.033Z,50.30
2019-04-25T21:26:21.621Z,50.30
2019-04-25T21:28:50.988Z,50.30
2019-04-25T21:31:20.622Z,50.70
2019-04-25T21:33:50.573Z,50.70
2019-04-25T21:36:20.414Z,50.60
2019-04-25T21:38:49.460Z,50.80
2019-04-25T21:41:36.228Z,50.90
2019-04-25T21:44:06.140Z,51.00
2019-04-25T21:46:35.211Z,51.20
2019-04-25T21:49:03.979Z,51.10
2019-04-25T21:51:32.957Z,51.30
2019-04-25T21:54:05.129Z,51.40
2019-04-25T21:56:34.100Z,51.70
2019-04-25T21:59:02.533Z,51.80
2019-04-25T22:01:38.659Z,51.90
2019-04-25T22:04:07.460Z,52.00
2019-04-25T22:06:36.335Z,52.80
2019-04-25T22:09:07.960Z,52.30
2019-04-25T22:11:36.389Z,52.40
2019-04-25T22:14:05.801Z,52.40
2019-04-25T22:16:34.514Z,52.60
2019-04-25T22:19:04.113Z,52.60
2019-04-25T22:21:52.240Z,52.60
2019-04-25T22:24:21.032Z,52.70
2019-04-25T22:26:51.474Z,52.70
2019-04-25T22:29:19.999Z,52.70
2019-04-25T22:32:07.501Z,52.80
2019-04-25T22:34:51.743Z,52.80
2019-04-25T22:37:11.604Z,53.00
2019-04-25T22:39:40.408Z,53.10
2019-04-25T22:42:09.185Z,53.30
2019-04-25T22:44:38.285Z,53.60
2019-04-25T22:47:07.084Z,53.60
2019-04-25T22:49:35.864Z,53.80
2019-04-25T22:52:04.975Z,54.00
2019-04-25T22:54:33.740Z,54.00
2019-04-25T22:57:02.858Z,54.30
2019-04-25T22:59:31.557Z,54.50
2019-04-25T23:02:10.730Z,54.80
2019-04-25T23:04:41.725Z,54.80
2019-04-25T23:07:10.512Z,55.00
2019-04-25T23:09:39.607Z,55.20
2019-04-25T23:12:08.782Z,55.40
2019-04-25T23:14:38.016Z,55.40
2019-04-25T23:17:07.353Z,55.60
2019-04-25T23:19:55.277Z,55.70
2019-04-25T23:22:23.700Z,56.00
2019-04-25T23:25:04.942Z,56.20
2019-04-25T23:27:38.513Z,56.30
2019-04-25T23:30:09.067Z,56.20
2019-04-25T23:32:38.476Z,56.30
2019-04-25T23:35:22.141Z,56.40
2019-04-25T23:37:37.665Z,56.30
2019-04-25T23:40:07.698Z,56.30
2019-04-25T23:42:36.253Z,56.70
2019-04-25T23:45:08.117Z,56.50
2019-04-25T23:47:36.648Z,56.70
2019-04-25T23:50:07.577Z,56.80
2019-04-25T23:52:37.208Z,56.60
2019-04-25T23:55:06.936Z,56.80
2019-04-25T23:57:36.812Z,56.70
